createdAt,value
2023-02-05T00:01:48.491Z,19.57
2023-02-05T00:04:15.317Z,19.73
2023-02-05T00:06:42.137Z,24.58
2023-02-05T00:09:09.039Z,17.08
2023-02-05T00:11:35.761Z,18.48
2023-02-05T00:14:02.429Z,15.75
2023-02-05T00:16:29.677Z,17.63
2023-02-05T00:18:59.197Z,18.40
2023-02-05T00:21:28.350Z,15.70
2023-02-05T00:23:57.492Z,22.97
2023-02-05T00:26:24.132Z,14.27
2023-02-05T00:28:50.917Z,18.65
2023-02-05T00:31:20.631Z,23.27
2023-02-05T00:33:48.734Z,20.17
2023-02-05T00:36:19.142Z,18.67
2023-02-05T00:38:49.104Z,18.80
2023-02-05T00:41:18.014Z,20.40
2023-02-05T00:43:45.324Z,21.48
2023-02-05T00:46:13.441Z,19.30
2023-02-05T00:48:40.984Z,17.65
2023-02-05T00:51:10.180Z,14.60
2023-02-05T00:53:37.126Z,16.65
2023-02-05T00:56:06.254Z,17.42
2023-02-05T00:58:33.124Z,20.90
2023-02-05T01:00:59.774Z,21.02
2023-02-05T01:03:26.660Z,19.25
2023-02-05T01:05:53.446Z,17.60
2023-02-05T01:08:20.198Z,17.10
2023-02-05T01:10:48.503Z,18.90
2023-02-05T01:13:18.341Z,22.92
2023-02-05T01:15:47.593Z,23.08
2023-02-05T01:18:16.535Z,15.63
2023-02-05T01:20:45.965Z,20.83
2023-02-05T01:23:12.689Z,19.92
2023-02-05T01:25:39.517Z,18.35
2023-02-05T01:28:06.818Z,18.13
2023-02-05T01:30:34.359Z,15.90
2023-02-05T01:33:01.273Z,26.58
2023-02-05T01:35:31.004Z,16.48
2023-02-05T01:38:00.225Z,20.60
2023-02-05T01:40:26.978Z,14.80
2023-02-05T01:42:53.826Z,22.48
2023-02-05T01:45:23.408Z,19.48
2023-02-05T01:47:52.672Z,17.27
2023-02-05T01:50:23.557Z,19.07
2023-02-05T01:52:51.092Z,19.92
2023-02-05T01:55:20.427Z,17.88
2023-02-05T01:57:48.761Z,21.02
2023-02-05T02:00:15.611Z,23.20
2023-02-05T02:02:42.715Z,20.85
2023-02-05T02:05:12.774Z,19.35
2023-02-05T02:07:40.372Z,22.77
2023-02-05T02:10:09.364Z,20.50
2023-02-05T02:12:39.102Z,18.50
2023-02-05T02:15:11.494Z,19.60
2023-02-05T02:17:40.891Z,18.58
2023-02-05T02:20:11.328Z,22.60
2023-02-05T02:22:55.708Z,18.15
2023-02-05T02:25:41.277Z,21.00
2023-02-05T02:28:16.748Z,21.15
2023-02-05T02:30:57.085Z,15.85
2023-02-05T02:33:48.392Z,15.88
2023-02-05T02:36:33.882Z,16.60
2023-02-05T02:39:08.234Z,20.08
2023-02-05T02:41:48.000Z,18.85
2023-02-05T02:44:25.021Z,18.05
2023-02-05T02:46:55.706Z,17.05
2023-02-05T02:49:42.515Z,22.38
2023-02-05T02:52:12.281Z,16.23
2023-02-05T02:54:41.249Z,15.75
2023-02-05T02:57:10.417Z,19.48
2023-02-05T02:59:39.587Z,17.93
2023-02-05T03:02:11.377Z,21.57
2023-02-05T03:04:41.243Z,22.50
2023-02-05T03:07:38.770Z,19.55
2023-02-05T03:10:18.508Z,16.50
2023-02-05T03:12:45.281Z,20.85
2023-02-05T03:15:14.748Z,21.27
2023-02-05T03:17:42.197Z,15.98
2023-02-05T03:20:24.064Z,15.55
2023-02-05T03:22:50.911Z,23.10
2023-02-05T03:25:23.165Z,18.27
2023-02-05T03:27:52.862Z,19.33
2023-02-05T03:30:20.287Z,17.88
2023-02-05T03:33:24.608Z,19.83
2023-02-05T03:36:04.355Z,23.25
2023-02-05T03:38:49.616Z,14.15
2023-02-05T03:41:55.726Z,15.57
2023-02-05T03:44:50.111Z,20.33
2023-02-05T03:47:35.098Z,20.13
2023-02-05T03:50:26.122Z,16.52
2023-02-05T03:53:04.567Z,16.15
2023-02-05T03:55:41.094Z,20.48
2023-02-05T03:58:13.816Z,22.10
2023-02-05T04:00:43.600Z,15.70
2023-02-05T04:03:10.693Z,18.70
2023-02-05T04:05:37.586Z,19.42
2023-02-05T04:08:04.635Z,20.60
2023-02-05T04:10:31.346Z,18.92
2023-02-05T04:12:58.005Z,21.23
2023-02-05T04:15:25.677Z,21.58
2023-02-05T04:17:57.803Z,17.67
2023-02-05T04:20:24.569Z,19.23
2023-02-05T04:22:55.956Z,24.35
2023-02-05T04:25:22.640Z,20.02
2023-02-05T04:27:49.323Z,17.00
2023-02-05T04:30:15.996Z,24.23
2023-02-05T04:32:43.193Z,19.20
2023-02-05T04:35:09.959Z,17.13
2023-02-05T04:37:39.172Z,19.48
2023-02-05T04:40:06.782Z,22.63
2023-02-05T04:42:33.463Z,15.68
2023-02-05T04:45:00.220Z,15.80
2023-02-05T04:47:26.895Z,25.13
2023-02-05T04:49:56.054Z,16.80
2023-02-05T04:52:22.741Z,20.20
2023-02-05T04:54:51.568Z,16.98
2023-02-05T04:57:18.304Z,17.52
2023-02-05T04:59:44.946Z,19.25
2023-02-05T05:02:14.059Z,21.33
2023-02-05T05:04:43.111Z,24.98
2023-02-05T05:07:10.298Z,16.10
2023-02-05T05:09:37.526Z,15.30
2023-02-05T05:12:04.413Z,13.60
2023-02-05T05:14:33.518Z,22.52
2023-02-05T05:17:00.217Z,25.00
2023-02-05T05:19:26.884Z,18.00
2023-02-05T05:21:53.555Z,14.70
2023-02-05T05:24:20.217Z,17.20
2023-02-05T05:26:49.070Z,24.40
2023-02-05T05:29:18.214Z,18.70
2023-02-05T05:31:44.986Z,19.33
2023-02-05T05:34:11.757Z,19.90
2023-02-05T05:36:43.269Z,21.65
2023-02-05T05:39:28.764Z,22.42
2023-02-05T05:42:16.393Z,16.52
2023-02-05T05:44:43.259Z,21.02
2023-02-05T05:47:09.991Z,22.45
2023-02-05T05:49:36.807Z,21.50
2023-02-05T05:52:03.559Z,16.55
2023-02-05T05:54:30.390Z,19.75
2023-02-05T05:56:57.070Z,20.27
2023-02-05T05:59:26.215Z,17.33
2023-02-05T06:01:52.918Z,19.38
2023-02-05T06:04:19.590Z,17.35
2023-02-05T06:06:48.742Z,16.83
2023-02-05T06:09:18.064Z,19.75
2023-02-05T06:11:44.759Z,19.25
2023-02-05T06:14:11.429Z,16.67
2023-02-05T06:16:41.404Z,18.75
2023-02-05T06:19:08.354Z,16.38
2023-02-05T06:21:35.006Z,15.18
2023-02-05T06:24:03.941Z,16.23
2023-02-05T06:26:30.590Z,21.85
2023-02-05T06:29:03.158Z,18.15
2023-02-05T06:31:32.994Z,15.65
2023-02-05T06:34:01.227Z,17.63
2023-02-05T06:36:27.970Z,20.05
2023-02-05T06:38:54.638Z,19.42
2023-02-05T06:41:21.297Z,17.20
2023-02-05T06:43:52.399Z,19.75
2023-02-05T06:46:19.141Z,20.65
2023-02-05T06:48:45.830Z,20.38
2023-02-05T06:51:13.495Z,14.77
2023-02-05T06:53:44.680Z,19.05
2023-02-05T06:56:11.458Z,18.50
2023-02-05T06:58:38.160Z,17.45
2023-02-05T07:01:05.102Z,21.23
2023-02-05T07:03:31.784Z,15.55
2023-02-05T07:06:06.020Z,18.42
2023-02-05T07:08:33.179Z,16.35
2023-02-05T07:11:02.690Z,26.63
2023-02-05T07:13:32.416Z,13.13
2023-02-05T07:16:03.719Z,14.30
2023-02-05T07:18:35.993Z,11.32
2023-02-05T07:21:10.287Z,18.63
2023-02-05T07:23:37.274Z,15.80
2023-02-05T07:26:17.497Z,18.45
2023-02-05T07:28:44.780Z,18.17
2023-02-05T07:31:18.597Z,16.90
2023-02-05T07:33:48.915Z,16.70
2023-02-05T07:36:21.255Z,17.08
2023-02-05T07:38:48.047Z,15.55
2023-02-05T07:41:15.905Z,16.20
2023-02-05T07:43:45.157Z,18.00
2023-02-05T07:46:17.433Z,15.20
2023-02-05T07:48:44.186Z,17.65
2023-02-05T07:51:17.383Z,20.00
2023-02-05T07:53:44.366Z,22.00
2023-02-05T07:56:11.328Z,24.52
2023-02-05T07:58:38.165Z,22.35
2023-02-05T08:01:05.838Z,20.80
2023-02-05T08:03:32.934Z,21.48
2023-02-05T08:05:59.840Z,22.05
2023-02-05T08:08:26.508Z,24.00
2023-02-05T08:10:59.287Z,23.00
2023-02-05T08:13:28.405Z,19.90
2023-02-05T08:15:55.589Z,20.37
2023-02-05T08:18:27.573Z,21.88
2023-02-05T08:20:55.258Z,16.27
2023-02-05T08:23:22.575Z,13.35
2023-02-05T08:25:56.917Z,15.70
2023-02-05T08:28:24.929Z,15.75
2023-02-05T08:30:53.780Z,16.98
2023-02-05T08:33:20.507Z,18.63
2023-02-05T08:35:47.201Z,16.02
2023-02-05T08:38:13.999Z,17.00
2023-02-05T08:40:40.914Z,21.40
2023-02-05T08:43:10.142Z,22.85
2023-02-05T08:45:37.577Z,26.13
2023-02-05T08:48:06.952Z,21.70
2023-02-05T08:50:33.719Z,22.10
2023-02-05T08:53:00.800Z,26.17
2023-02-05T08:55:29.767Z,22.58
2023-02-05T08:57:58.875Z,23.20
2023-02-05T09:00:28.246Z,24.17
2023-02-05T09:02:55.076Z,25.17
2023-02-05T09:05:21.817Z,21.45
2023-02-05T09:07:48.574Z,23.27
2023-02-05T09:10:15.338Z,18.67
2023-02-05T09:12:42.059Z,18.02
2023-02-05T09:15:09.491Z,16.70
2023-02-05T09:17:38.319Z,16.83
2023-02-05T09:20:05.217Z,16.88
2023-02-05T09:22:31.896Z,18.92
2023-02-05T09:24:58.601Z,17.15
2023-02-05T09:27:25.317Z,18.17
2023-02-05T09:29:51.989Z,17.38
2023-02-05T09:32:20.956Z,15.45
2023-02-05T09:34:49.371Z,12.82
2023-02-05T09:37:17.443Z,12.38
2023-02-05T09:40:19.022Z,11.82
2023-02-05T09:42:44.370Z,13.73
2023-02-05T09:45:41.480Z,8.80
2023-02-05T09:48:29.776Z,11.38
2023-02-05T09:51:00.079Z,9.98
2023-02-05T09:53:34.155Z,7.53
2023-02-05T09:56:04.494Z,5.80
2023-02-05T09:58:35.029Z,6.43
2023-02-05T10:01:13.018Z,5.10
2023-02-05T10:03:55.780Z,6.22
2023-02-05T10:06:28.207Z,3.50
2023-02-05T10:09:34.163Z,6.28
2023-02-05T10:12:09.719Z,5.75
2023-02-05T10:15:04.450Z,3.30
2023-02-05T10:17:57.214Z,3.80
2023-02-05T10:20:41.899Z,5.75
2023-02-05T10:23:27.189Z,3.90
2023-02-05T10:26:13.284Z,5.03
2023-02-05T10:29:04.136Z,3.92
2023-02-05T10:31:44.687Z,4.90
2023-02-05T10:34:23.324Z,4.75
2023-02-05T10:36:53.039Z,5.57
2023-02-05T10:39:24.905Z,4.25
2023-02-05T10:42:07.244Z,5.45
2023-02-05T10:44:48.984Z,5.35
2023-02-05T10:47:35.517Z,4.25
2023-02-05T10:50:08.615Z,5.13
2023-02-05T10:52:35.320Z,4.35
2023-02-05T10:55:01.989Z,5.90
2023-02-05T10:57:34.127Z,3.33
2023-02-05T11:00:07.555Z,7.90
2023-02-05T11:02:43.788Z,4.63
2023-02-05T11:05:38.594Z,3.35
2023-02-05T11:08:25.693Z,3.20
2023-02-05T11:10:53.740Z,5.10
2023-02-05T11:13:24.944Z,5.57
2023-02-05T11:16:11.001Z,4.22
2023-02-05T11:18:47.138Z,6.97
2023-02-05T11:21:13.933Z,5.70
2023-02-05T11:23:53.987Z,4.45
2023-02-05T11:28:49.891Z,5.97
2023-02-05T11:31:35.057Z,4.60
2023-02-05T11:34:07.786Z,5.22
2023-02-05T11:36:39.213Z,6.68
2023-02-05T11:39:09.099Z,7.88
2023-02-05T11:41:51.737Z,5.30
2023-02-05T11:44:32.072Z,4.10
2023-02-05T11:47:00.878Z,7.75
2023-02-05T11:49:40.742Z,3.90
2023-02-05T11:52:13.253Z,5.75
2023-02-05T11:54:45.893Z,3.60
2023-02-05T11:57:19.674Z,3.88
2023-02-05T11:59:55.666Z,4.90
2023-02-05T12:02:30.868Z,2.42
2023-02-05T12:05:17.167Z,5.82
2023-02-05T12:08:19.971Z,2.55
2023-02-05T12:11:01.557Z,7.43
2023-02-05T12:13:47.825Z,7.03
2023-02-05T12:16:17.291Z,5.95
2023-02-05T12:19:02.656Z,6.47
2023-02-05T12:21:51.412Z,3.15
2023-02-05T12:24:47.520Z,5.60
2023-02-05T12:27:32.499Z,10.57
2023-02-05T12:30:23.897Z,6.90
2023-02-05T12:32:57.361Z,5.07
2023-02-05T12:35:47.773Z,6.70
2023-02-05T12:38:35.590Z,4.95
2023-02-05T12:41:05.129Z,9.20
2023-02-05T12:43:39.053Z,6.53
2023-02-05T12:46:22.552Z,11.57
2023-02-05T12:48:58.052Z,8.38
2023-02-05T12:51:55.142Z,5.10
2023-02-05T12:54:33.767Z,7.85
2023-02-05T12:57:05.396Z,9.55
2023-02-05T12:59:38.059Z,10.95
2023-02-05T13:02:22.033Z,7.20
2023-02-05T13:05:09.318Z,10.70
2023-02-05T13:07:43.774Z,10.30
2023-02-05T13:10:24.955Z,7.68
2023-02-05T13:13:00.256Z,8.68
2023-02-05T13:16:01.534Z,9.98
2023-02-05T13:18:37.266Z,8.60
2023-02-05T13:21:26.022Z,12.30
2023-02-05T13:24:40.073Z,9.43
2023-02-05T13:27:39.802Z,11.63
2023-02-05T13:30:16.853Z,7.00
2023-02-05T13:32:47.345Z,8.15
2023-02-05T13:35:15.086Z,7.28
2023-02-05T13:38:10.640Z,4.38
2023-02-05T13:40:54.564Z,6.03
2023-02-05T13:43:39.431Z,9.50
2023-02-05T13:46:30.937Z,7.70
2023-02-05T13:49:34.697Z,4.75
2023-02-05T13:52:25.456Z,6.72
2023-02-05T13:55:25.470Z,7.07
2023-02-05T13:58:13.263Z,5.32
2023-02-05T14:00:47.632Z,4.13
2023-02-05T14:03:30.615Z,9.32
2023-02-05T14:05:57.724Z,4.47
2023-02-05T14:08:36.981Z,6.03
2023-02-05T14:11:07.802Z,8.40
2023-02-05T14:13:35.741Z,7.63
2023-02-05T14:16:24.334Z,7.38
2023-02-05T14:19:09.855Z,6.03
2023-02-05T14:21:38.667Z,4.95
2023-02-05T14:24:45.408Z,5.45
2023-02-05T14:27:21.022Z,2.70
2023-02-05T14:29:51.423Z,3.35
2023-02-05T14:32:27.365Z,5.05
2023-02-05T14:35:38.116Z,4.30
2023-02-05T14:38:30.407Z,3.15
2023-02-05T14:41:21.809Z,5.90
2023-02-05T14:44:11.495Z,3.35
2023-02-05T14:46:39.743Z,2.90
2023-02-05T14:49:20.701Z,4.32
2023-02-05T14:51:59.186Z,2.58
2023-02-05T14:54:29.934Z,5.57
2023-02-05T14:57:14.824Z,2.97
2023-02-05T15:00:04.049Z,3.42
2023-02-05T15:02:55.677Z,4.00
2023-02-05T15:05:36.961Z,3.22
2023-02-05T15:08:18.914Z,3.13
2023-02-05T15:11:04.793Z,3.10
2023-02-05T15:13:32.191Z,3.00
2023-02-05T15:16:22.200Z,4.03
2023-02-05T15:19:06.039Z,3.80
2023-02-05T15:21:51.544Z,3.47
2023-02-05T15:24:21.466Z,4.28
2023-02-05T15:27:00.693Z,3.50
2023-02-05T15:29:43.925Z,6.30
2023-02-05T15:32:20.830Z,5.68
2023-02-05T15:34:54.575Z,5.38
2023-02-05T15:37:29.659Z,7.32
2023-02-05T15:39:58.048Z,7.93
2023-02-05T15:42:39.014Z,5.60
2023-02-05T15:45:27.116Z,5.00
2023-02-05T15:48:11.250Z,9.23
2023-02-05T15:50:56.185Z,6.80
2023-02-05T15:53:32.938Z,4.32
2023-02-05T15:56:05.299Z,4.88
2023-02-05T15:58:32.073Z,7.28
2023-02-05T16:01:01.122Z,11.50
2023-02-05T16:03:33.452Z,6.50
2023-02-05T16:06:00.826Z,6.18
2023-02-05T16:08:31.130Z,5.57
2023-02-05T16:11:03.570Z,6.53
2023-02-05T16:13:30.358Z,6.80
2023-02-05T16:15:57.022Z,9.25
2023-02-05T16:18:43.202Z,5.47
2023-02-05T16:21:28.149Z,3.35
2023-02-05T16:24:07.216Z,5.07
2023-02-05T16:26:45.881Z,5.63
2023-02-05T16:29:31.580Z,7.00
2023-02-05T16:32:07.250Z,3.50
2023-02-05T16:34:36.677Z,3.42
2023-02-05T16:37:09.882Z,5.13
2023-02-05T16:39:43.704Z,5.22
2023-02-05T16:42:25.711Z,9.05
2023-02-05T16:45:12.627Z,5.28
2023-02-05T16:47:39.795Z,7.18
2023-02-05T16:50:41.234Z,6.65
2023-02-05T16:53:35.906Z,6.40
2023-02-05T16:56:19.885Z,7.82
2023-02-05T16:58:52.612Z,6.82
2023-02-05T17:01:42.793Z,8.30
2023-02-05T17:04:38.841Z,7.35
2023-02-05T17:07:17.441Z,8.60
2023-02-05T17:09:44.370Z,7.88
2023-02-05T17:12:20.387Z,11.30
2023-02-05T17:14:57.806Z,4.35
2023-02-05T17:17:29.956Z,8.35
2023-02-05T17:20:15.093Z,6.65
2023-02-05T17:23:05.210Z,8.52
2023-02-05T17:27:58.578Z,9.10
2023-02-05T17:30:32.381Z,8.07
2023-02-05T17:33:05.244Z,7.78
2023-02-05T17:35:33.804Z,6.10
2023-02-05T17:38:00.753Z,8.90
2023-02-05T17:40:30.054Z,9.70
2023-02-05T17:42:59.152Z,9.30
2023-02-05T17:45:30.269Z,6.05
2023-02-05T17:48:01.882Z,8.18
2023-02-05T17:50:29.103Z,11.02
2023-02-05T17:52:55.878Z,8.50
2023-02-05T17:55:23.243Z,17.40
2023-02-05T17:57:52.534Z,6.88
2023-02-05T18:00:27.503Z,10.17
2023-02-05T18:02:54.652Z,9.65
2023-02-05T18:05:22.260Z,10.40
2023-02-05T18:07:55.207Z,8.05
2023-02-05T18:10:25.801Z,8.55
2023-02-05T18:12:56.026Z,9.75
2023-02-05T18:15:24.339Z,10.82
2023-02-05T18:17:51.550Z,12.52
2023-02-05T18:20:22.461Z,16.10
2023-02-05T18:22:49.743Z,10.15
2023-02-05T18:25:16.568Z,7.28
2023-02-05T18:27:43.344Z,10.70
2023-02-05T18:30:10.765Z,17.02
2023-02-05T18:32:42.147Z,8.68
2023-02-05T18:35:12.420Z,11.52
2023-02-05T18:37:39.194Z,13.77
2023-02-05T18:40:06.513Z,11.00
2023-02-05T18:42:34.264Z,8.57
2023-02-05T18:45:04.002Z,12.52
2023-02-05T18:47:30.669Z,13.93
2023-02-05T18:49:57.546Z,15.48
2023-02-05T18:52:26.543Z,12.50
2023-02-05T18:54:54.188Z,10.75
2023-02-05T18:57:21.037Z,13.18
2023-02-05T18:59:48.595Z,13.52
2023-02-05T19:02:15.403Z,18.90
2023-02-05T19:04:42.440Z,14.40
2023-02-05T19:07:09.175Z,14.02
2023-02-05T19:09:38.369Z,15.30
2023-02-05T19:12:07.330Z,23.17
2023-02-05T19:14:36.281Z,16.00
2023-02-05T19:17:03.169Z,12.88
2023-02-05T19:19:31.198Z,19.08
2023-02-05T19:22:01.692Z,12.68
2023-02-05T19:24:29.265Z,12.00
2023-02-05T19:26:59.083Z,15.75
2023-02-05T19:29:26.509Z,16.67
2023-02-05T19:31:53.799Z,16.75
2023-02-05T19:34:22.084Z,20.35
2023-02-05T19:36:48.869Z,16.95
2023-02-05T19:39:15.575Z,9.32
2023-02-05T19:41:45.571Z,17.98
2023-02-05T19:46:41.997Z,13.95
2023-02-05T19:49:16.618Z,18.13
2023-02-05T19:51:48.667Z,14.50
2023-02-05T19:54:16.434Z,16.92
2023-02-05T19:56:48.844Z,15.60
2023-02-05T19:59:16.738Z,13.23
2023-02-05T20:01:49.731Z,17.60
2023-02-05T20:04:21.192Z,17.50
2023-02-05T20:06:48.891Z,21.10
2023-02-05T20:09:17.322Z,16.73
2023-02-05T20:11:49.559Z,17.23
2023-02-05T20:14:17.496Z,22.77
2023-02-05T20:16:50.058Z,20.45
2023-02-05T20:19:19.737Z,16.98
2023-02-05T20:21:47.418Z,15.18
2023-02-05T20:24:16.278Z,15.20
2023-02-05T20:26:44.742Z,15.20
2023-02-05T20:29:30.708Z,12.00
2023-02-05T20:32:04.365Z,16.83
2023-02-05T20:37:19.800Z,16.05
2023-02-05T20:39:48.093Z,14.07
2023-02-05T20:42:15.553Z,17.27
2023-02-05T20:44:43.549Z,15.63
2023-02-05T20:47:13.234Z,14.63
2023-02-05T20:49:41.770Z,14.50
2023-02-05T20:52:09.829Z,13.68
2023-02-05T20:54:39.597Z,16.10
2023-02-05T20:57:07.672Z,15.85
2023-02-05T20:59:36.463Z,14.38
2023-02-05T21:02:03.920Z,20.35
2023-02-05T21:04:31.526Z,18.88
2023-02-05T21:06:58.458Z,19.98
2023-02-05T21:09:25.202Z,16.58
2023-02-05T21:11:55.296Z,11.90
2023-02-05T21:16:51.113Z,10.93
2023-02-05T21:19:20.310Z,15.02
2023-02-05T21:21:47.369Z,16.23
2023-02-05T21:24:16.037Z,14.20
2023-02-05T21:26:45.439Z,21.27
2023-02-05T21:29:15.252Z,15.13
2023-02-05T21:31:45.989Z,17.67
2023-02-05T21:34:17.627Z,19.23
2023-02-05T21:36:47.079Z,14.43
2023-02-05T21:39:18.209Z,14.35
2023-02-05T21:41:47.647Z,17.00
2023-02-05T21:44:18.049Z,19.42
2023-02-05T21:46:44.786Z,11.68
2023-02-05T21:49:11.924Z,18.98
2023-02-05T21:51:39.857Z,15.15
2023-02-05T21:54:11.336Z,15.25
2023-02-05T21:56:43.080Z,14.50
2023-02-05T21:59:12.112Z,11.85
2023-02-05T22:01:42.182Z,16.08
2023-02-05T22:06:37.876Z,11.07
2023-02-05T22:09:06.802Z,13.27
2023-02-05T22:11:38.442Z,17.35
2023-02-05T22:14:07.815Z,30.88
2023-02-05T22:16:35.633Z,8.77
2023-02-05T22:19:04.102Z,17.73
2023-02-05T22:21:33.302Z,18.92
2023-02-05T22:24:03.787Z,12.77
2023-02-05T22:26:33.446Z,14.55
2023-02-05T22:29:06.735Z,12.50
2023-02-05T22:31:34.255Z,8.88
2023-02-05T22:34:04.511Z,11.77
2023-02-05T22:36:33.543Z,15.00
2023-02-05T22:39:00.611Z,13.63
2023-02-05T22:41:28.564Z,9.02
2023-02-05T22:43:56.458Z,9.18
2023-02-05T22:46:25.802Z,9.52
2023-02-05T22:48:55.855Z,14.55
2023-02-05T22:53:54.335Z,7.95
2023-02-05T22:56:24.487Z,10.38
2023-02-05T23:01:23.293Z,18.83
2023-02-05T23:03:51.915Z,9.98
2023-02-05T23:06:20.657Z,11.07
2023-02-05T23:08:53.142Z,12.82
2023-02-05T23:11:21.013Z,10.38
2023-02-05T23:13:48.591Z,11.60
2023-02-05T23:16:26.658Z,11.45
2023-02-05T23:18:59.098Z,9.48
2023-02-05T23:21:28.290Z,13.02
2023-02-05T23:23:55.513Z,11.13
2023-02-05T23:26:25.187Z,7.38
2023-02-05T23:28:53.458Z,14.60
2023-02-05T23:31:21.682Z,9.20
2023-02-05T23:33:48.962Z,10.80
2023-02-05T23:36:15.948Z,10.98
2023-02-05T23:38:42.634Z,11.32
2023-02-05T23:41:09.713Z,14.70
2023-02-05T23:43:37.934Z,12.00
2023-02-05T23:46:06.744Z,6.47
2023-02-05T23:48:36.487Z,15.25
2023-02-05T23:51:05.622Z,18.30
2023-02-05T23:53:32.358Z,13.75
2023-02-05T23:56:01.414Z,11.43
2023-02-05T23:58:28.145Z,11.20
